Time;durP1;ratioP1;P1;durP2;ratioP2;P2;SDS_P1;SDS_P2;PMS_P1;PMS_P2;Temp;Humidity;BMP_temperature;BMP_pressure;BME280_temperature;BME280_humidity;BME280_pressure;Samples;Min_cycle;Max_cycle;Signal;HPM_P1;HPM_P2
2022/04/01 00:00:25;;;;;;;;;;;;;;;23.38;65.74;95387.09;586124;242;68709;-65
2022/04/01 00:02:53;;;;;;;;;;;;;;;23.37;65.49;95388.22;586124;242;68694;-65
2022/04/01 00:05:21;;;;;;;;;;;;;;;23.37;65.44;95377.50;586162;242;65133;-65
2022/04/01 00:07:48;;;;;;;;;;;;;;;23.36;65.40;95381.30;586176;242;66591;-65
2022/04/01 00:10:16;;;;;;;;;;;;;;;23.36;65.59;95387.44;586174;242;66674;-65
2022/04/01 00:12:44;;;;;;;;;;;;;;;23.36;65.87;95381.30;586165;242;63164;-65
2022/04/01 00:15:12;;;;;;;;;;;;;;;23.36;65.73;95387.44;586112;242;68898;-65
2022/04/01 00:17:41;;;;;;;;;;;;;;;23.36;65.55;95386.66;586104;242;68692;-66
2022/04/01 00:20:10;;;;;;;;;;;;;;;23.36;65.66;95370.58;586138;242;65985;-66
2022/04/01 00:22:38;;;;;;;;;;;;;;;23.36;66.00;95378.62;586201;242;68773;-66
2022/04/01 00:25:06;;;;;;;;;;;;;;;23.35;65.37;95377.03;586110;242;68533;-66
2022/04/01 00:27:34;;;;;;;;;;;;;;;23.35;65.61;95360.95;586124;242;65374;-66
2022/04/01 00:30:03;;;;;;;;;;;;;;;23.36;65.82;95357.17;586161;242;69102;-66
2022/04/01 00:32:31;;;;;;;;;;;;;;;23.35;66.08;95337.60;586155;242;68129;-66
2022/04/01 00:34:58;;;;;;;;;;;;;;;23.34;66.05;95329.91;586168;242;62929;-66
2022/04/01 00:37:26;;;;;;;;;;;;;;;23.32;66.27;95327.53;586127;242;66496;-65
2022/04/01 00:39:53;;;;;;;;;;;;;;;23.32;65.96;95321.39;586148;242;68886;-65
2022/04/01 00:42:21;;;;;;;;;;;;;;;23.32;66.00;95300.73;586124;242;63180;-66
2022/04/01 00:44:49;;;;;;;;;;;;;;;23.33;65.97;95288.92;586149;242;67424;-65
2022/04/01 00:47:16;;;;;;;;;;;;;;;23.32;65.47;95276.61;579744;242;69932;-66
2022/04/01 00:49:44;;;;;;;;;;;;;;;23.32;65.72;95259.75;586199;242;66055;-65
2022/04/01 00:52:13;;;;;;;;;;;;;;;23.33;65.29;95258.66;586166;242;69112;-65
2022/04/01 00:54:41;;;;;;;;;;;;;;;23.32;65.56;95244.45;586134;242;66811;-66
2022/04/01 00:57:10;;;;;;;;;;;;;;;23.31;65.20;95237.53;586162;242;65135;-66
2022/04/01 00:59:38;;;;;;;;;;;;;;;23.31;66.35;95232.17;586162;242;66112;-66
2022/04/01 01:02:06;;;;;;;;;;;;;;;23.31;65.63;95234.84;586198;242;66528;-65
2022/04/01 01:04:34;;;;;;;;;;;;;;;23.32;66.07;95228.36;586103;242;66251;-65
2022/04/01 01:07:02;;;;;;;;;;;;;;;23.31;66.00;95234.07;586171;242;69137;-65
2022/04/01 01:09:31;;;;;;;;;;;;;;;23.31;65.21;95215.31;586128;242;66604;-65
2022/04/01 01:11:58;;;;;;;;;;;;;;;23.30;66.07;95182.37;586147;242;65594;-65
2022/04/01 01:14:28;;;;;;;;;;;;;;;23.31;65.86;95191.19;586211;242;67391;-65
2022/04/01 01:16:58;;;;;;;;;;;;;;;23.28;65.53;95181.91;586145;242;66622;-65
2022/04/01 01:19:26;;;;;;;;;;;;;;;23.30;65.99;95173.52;586142;242;65360;-65
2022/04/01 01:21:54;;;;;;;;;;;;;;;23.29;64.80;95169.28;576362;242;68645;-65
2022/04/01 01:24:32;;;;;;;;;;;;;;;23.28;65.46;95187.27;575528;242;68926;-65
2022/04/01 01:27:01;;;;;;;;;;;;;;;23.29;65.93;95193.41;575556;246;62954;-65
2022/04/01 01:29:29;;;;;;;;;;;;;;;23.29;65.83;95202.22;575586;246;68765;-65
2022/04/01 01:31:59;;;;;;;;;;;;;;;23.28;65.87;95173.09;575521;246;66361;-66
2022/04/01 01:34:27;;;;;;;;;;;;;;;23.28;66.18;95205.25;575525;246;65119;-66
2022/04/01 01:36:56;;;;;;;;;;;;;;;23.29;65.95;95201.45;575552;246;68649;-66
2022/04/01 01:39:24;;;;;;;;;;;;;;;23.29;65.52;95206.81;575530;246;68828;-66
2022/04/01 01:41:53;;;;;;;;;;;;;;;23.28;65.15;95215.97;575578;246;65502;-66
2022/04/01 01:44:22;;;;;;;;;;;;;;;23.27;66.64;95220.52;575537;246;69278;-65
2022/04/01 01:46:51;;;;;;;;;;;;;;;23.27;66.04;95204.44;575524;246;68689;-65
2022/04/01 01:49:23;;;;;;;;;;;;;;;23.27;66.59;95199.08;575524;246;63285;-64
2022/04/01 01:54:50;;;;;;;;;;;;;;;23.26;66.57;95208.25;575541;246;68916;-65
2022/04/01 01:57:17;;;;;;;;;;;;;;;23.25;65.91;95220.87;575529;245;63220;-65
2022/04/01 01:59:46;;;;;;;;;;;;;;;23.25;66.07;95207.47;575591;246;68820;-65
2022/04/01 02:02:14;;;;;;;;;;;;;;;23.26;65.76;95213.61;575537;246;69257;-65
2022/04/01 02:04:42;;;;;;;;;;;;;;;23.24;65.64;95203.23;575525;246;65308;-65
2022/04/01 02:07:11;;;;;;;;;;;;;;;23.24;66.16;95221.98;575536;246;66293;-65
2022/04/01 02:09:43;;;;;;;;;;;;;;;23.25;66.69;95206.69;575504;246;68995;-65
2022/04/01 02:12:08;;;;;;;;;;;;;;;23.24;66.58;95216.63;575569;245;65553;-65
2022/04/01 02:14:36;;;;;;;;;;;;;;;23.24;66.47;95205.10;575527;246;68530;-65
2022/04/01 02:17:05;;;;;;;;;;;;;;;23.24;68.09;95210.47;575546;246;67376;-65
2022/04/01 02:19:32;;;;;;;;;;;;;;;23.24;66.40;95205.10;575518;246;65246;-65
2022/04/01 02:22:01;;;;;;;;;;;;;;;23.22;66.12;95189.38;585812;242;69595;-65
2022/04/01 02:24:31;;;;;;;;;;;;;;;23.22;66.72;95197.41;586206;242;45661;-65
2022/04/01 02:26:58;;;;;;;;;;;;;;;23.23;65.61;95208.91;579664;242;66673;-65
2022/04/01 02:29:26;;;;;;;;;;;;;;;23.22;66.20;95234.93;586136;242;69507;-65
2022/04/01 02:32:13;;;;;;;;;;;;;;;23.22;66.22;95213.48;586237;242;43869;-66
2022/04/01 02:34:48;;;;;;;;;;;;;;;23.21;66.36;95211.91;586155;242;47922;-66
2022/04/01 02:37:19;;;;;;;;;;;;;;;23.21;66.10;95201.19;586164;242;66319;-66
2022/04/01 02:39:46;;;;;;;;;;;;;;;23.20;66.19;95202.30;586171;242;66421;-66
2022/04/01 02:42:14;;;;;;;;;;;;;;;23.22;66.18;95218.06;586141;242;65690;-66
2022/04/01 02:44:41;;;;;;;;;;;;;;;23.21;65.84;95222.63;586128;242;68915;-66
2022/04/01 02:47:09;;;;;;;;;;;;;;;23.21;65.94;95219.16;586104;242;66189;-66
2022/04/01 02:49:37;;;;;;;;;;;;;;;23.21;66.71;95227.20;586131;242;65635;-66
2022/04/01 02:52:05;;;;;;;;;;;;;;;23.20;66.25;95209.56;586172;242;68846;-66
2022/04/01 02:54:35;;;;;;;;;;;;;;;23.20;67.20;95218.39;586240;242;49667;-65
2022/04/01 02:57:02;;;;;;;;;;;;;;;23.20;66.14;95209.56;586148;242;63970;-65
2022/04/01 02:59:30;;;;;;;;;;;;;;;23.19;66.18;95216.83;586161;242;68855;-65
2022/04/01 03:01:58;;;;;;;;;;;;;;;23.20;66.41;95226.42;586138;242;66723;-65
2022/04/01 03:04:27;;;;;;;;;;;;;;;23.21;66.61;95227.98;586172;242;47084;-65
2022/04/01 03:06:56;;;;;;;;;;;;;;;23.20;66.60;95231.78;586217;242;65977;-66
2022/04/01 03:09:24;;;;;;;;;;;;;;;23.20;68.24;95231.78;586127;242;68889;-66
2022/04/01 03:11:54;;;;;;;;;;;;;;;23.19;65.57;95232.91;585850;242;46249;-66
2022/04/01 03:14:24;;;;;;;;;;;;;;;23.18;66.92;95227.86;585316;242;47713;-65
2022/04/01 03:16:53;;;;;;;;;;;;;;;23.19;66.48;95224.06;585195;242;48266;-66
2022/04/01 03:19:21;;;;;;;;;;;;;;;23.18;66.22;95223.28;586199;242;65526;-66
2022/04/01 03:21:49;;;;;;;;;;;;;;;23.19;66.76;95219.51;586139;242;66452;-66
2022/04/01 03:24:18;;;;;;;;;;;;;;;23.18;66.99;95212.56;586156;242;68760;-66
2022/04/01 03:26:46;;;;;;;;;;;;;;;23.17;66.78;95211.00;586151;242;65114;-66
2022/04/01 03:29:13;;;;;;;;;;;;;;;23.18;66.52;95222.50;586143;242;65895;-66
2022/04/01 03:31:42;;;;;;;;;;;;;;;23.17;67.78;95224.41;586155;242;68741;-66
2022/04/01 03:34:09;;;;;;;;;;;;;;;23.16;66.50;95205.96;586150;242;65422;-66
2022/04/01 03:36:37;;;;;;;;;;;;;;;23.15;66.19;95218.58;586177;242;66745;-66
2022/04/01 03:39:05;;;;;;;;;;;;;;;23.17;66.95;95215.59;586162;242;69022;-66
2022/04/01 03:41:48;;;;;;;;;;;;;;;23.15;67.26;95204.41;586119;242;44155;-67
2022/04/01 03:44:17;;;;;;;;;;;;;;;23.15;67.00;95223.94;586180;242;68786;-67
2022/04/01 03:46:50;;;;;;;;;;;;;;;23.16;66.61;95214.80;586123;242;48408;-67
2022/04/01 03:49:25;;;;;;;;;;;;;;;23.16;67.53;95220.17;586198;242;64072;-66
2022/04/01 03:51:55;;;;;;;;;;;;;;;23.15;67.44;95234.66;586155;242;69514;-66
2022/04/01 03:54:25;;;;;;;;;;;;;;;23.14;66.27;95219.70;586134;242;67711;-66
2022/04/01 03:57:08;;;;;;;;;;;;;;;23.15;67.39;95223.16;586212;242;47654;-67
2022/04/01 03:59:55;;;;;;;;;;;;;;;23.15;67.35;95228.52;586160;242;40471;-66
2022/04/01 04:02:42;;;;;;;;;;;;;;;23.13;67.59;95242.23;586312;241;40338;-67
2022/04/01 04:05:10;;;;;;;;;;;;;;;23.13;67.55;95242.23;585982;242;66025;-66
2022/04/01 04:07:39;;;;;;;;;;;;;;;23.13;66.91;95236.09;586113;242;68882;-68
2022/04/01 04:10:09;;;;;;;;;;;;;;;23.14;67.55;95245.72;586107;242;47204;-66
2022/04/01 04:12:42;;;;;;;;;;;;;;;23.13;67.39;95210.08;585715;242;42648;-67
2022/04/01 04:15:10;;;;;;;;;;;;;;;23.12;67.23;95205.06;586161;242;68873;-67
2022/04/01 04:17:40;;;;;;;;;;;;;;;23.11;66.50;95217.69;586195;242;68560;-68
2022/04/01 04:20:18;;;;;;;;;;;;;;;23.13;67.84;95204.72;586057;240;63471;-67
2022/04/01 04:22:45;;;;;;;;;;;;;;;23.12;66.84;95200.48;585225;242;47380;-67
2022/04/01 04:25:14;;;;;;;;;;;;;;;23.12;67.17;95203.16;585855;242;69534;-67
2022/04/01 04:27:43;;;;;;;;;;;;;;;23.13;66.94;95215.44;586152;242;66127;-66
2022/04/01 04:30:11;;;;;;;;;;;;;;;23.11;67.46;95190.08;585919;242;68273;-67
2022/04/01 04:32:55;;;;;;;;;;;;;;;23.11;67.29;95190.08;585190;242;48484;-66
2022/04/01 04:35:25;;;;;;;;;;;;;;;23.11;68.29;95174.00;586146;242;62727;-66
2022/04/01 04:37:54;;;;;;;;;;;;;;;23.09;66.71;95177.03;586156;242;66725;-66
2022/04/01 04:40:21;;;;;;;;;;;;;;;23.10;67.12;95194.66;586141;242;67174;-66
2022/04/01 04:42:53;;;;;;;;;;;;;;;23.10;67.33;95191.98;585896;242;47012;-66
2022/04/01 04:45:22;;;;;;;;;;;;;;;23.10;67.01;95177.81;586188;242;68867;-66
2022/04/01 04:47:51;;;;;;;;;;;;;;;23.09;67.17;95187.75;586108;242;45095;-66
2022/04/01 04:50:19;;;;;;;;;;;;;;;23.09;67.92;95187.75;586072;242;64058;-66
2022/04/01 04:52:53;;;;;;;;;;;;;;;23.09;67.36;95171.67;586144;242;69052;-67
2022/04/01 04:55:21;;;;;;;;;;;;;;;23.09;67.50;95178.93;586138;242;68754;-66
2022/04/01 04:58:07;;;;;;;;;;;;;;;23.09;67.75;95192.33;586373;242;42373;-66
2022/04/01 05:00:35;;;;;;;;;;;;;;;23.08;67.55;95170.11;586078;242;69517;-66
2022/04/01 05:03:15;;;;;;;;;;;;;;;23.09;68.29;95168.21;585585;242;49498;-65
2022/04/01 05:05:43;;;;;;;;;;;;;;;23.08;68.18;95143.33;586141;242;65588;-65
2022/04/01 05:08:35;;;;;;;;;;;;;;;23.08;67.55;95162.08;586121;242;51040;-65
2022/04/01 05:11:09;;;;;;;;;;;;;;;23.06;68.32;95137.50;585377;242;46703;-65
2022/04/01 05:13:43;;;;;;;;;;;;;;;23.07;68.16;95127.56;586150;242;65278;-65
2022/04/01 05:16:10;;;;;;;;;;;;;;;23.06;67.54;95139.41;585977;242;45467;-65
2022/04/01 05:18:45;;;;;;;;;;;;;;;23.06;68.13;95139.41;586178;242;68639;-65
2022/04/01 05:21:16;;;;;;;;;;;;;;;23.06;68.46;95134.05;579019;242;63072;-65
2022/04/01 05:23:45;;;;;;;;;;;;;;;23.06;67.70;95134.82;575547;246;66654;-65
2022/04/01 05:26:14;;;;;;;;;;;;;;;23.05;67.35;95125.20;574981;246;68742;-65
2022/04/01 05:29:01;;;;;;;;;;;;;;;23.06;67.90;95129.47;574540;246;40201;-65
2022/04/01 05:31:34;;;;;;;;;;;;;;;23.05;69.69;95122.52;575496;246;66192;-65
2022/04/01 05:34:09;;;;;;;;;;;;;;;23.05;67.58;95130.56;575348;245;69054;-65
2022/04/01 05:36:38;;;;;;;;;;;;;;;23.04;67.86;95115.61;575571;246;65999;-65
2022/04/01 05:39:06;;;;;;;;;;;;;;;23.05;68.21;95149.31;575508;246;66032;-65
2022/04/01 05:41:35;;;;;;;;;;;;;;;23.03;67.71;95146.20;575451;246;68927;-65
2022/04/01 05:44:05;;;;;;;;;;;;;;;23.03;67.56;95146.20;575511;246;65756;-65
2022/04/01 05:46:41;;;;;;;;;;;;;;;23.02;67.12;95099.07;575482;244;47347;-65
2022/04/01 05:49:11;;;;;;;;;;;;;;;23.03;66.66;95152.34;575236;246;66250;-65
2022/04/01 05:51:39;;;;;;;;;;;;;;;23.02;67.18;95129.31;575113;246;62964;-65
2022/04/01 05:54:09;;;;;;;;;;;;;;;23.03;67.70;95148.88;575442;246;69697;-67
2022/04/01 05:56:38;;;;;;;;;;;;;;;23.02;67.81;95144.61;575386;246;66236;-67
2022/04/01 05:59:07;;;;;;;;;;;;;;;23.01;67.87;95154.55;575493;246;63198;-64
2022/04/01 06:01:44;;;;;;;;;;;;;;;23.03;67.92;95146.20;575407;246;66401;-67
2022/04/01 06:04:19;;;;;;;;;;;;;;;23.03;67.30;95132.80;575174;246;69476;-67
2022/04/01 06:06:48;;;;;;;;;;;;;;;23.02;67.63;95141.94;575067;246;65478;-65
2022/04/01 06:09:28;;;;;;;;;;;;;;;23.00;68.82;95168.30;574783;244;48944;-67
2022/04/01 06:12:05;;;;;;;;;;;;;;;22.98;67.96;95149.86;564077;246;48377;-67
2022/04/01 06:14:35;;;;;;;;;;;;;;;22.99;68.57;95153.31;574626;245;42263;-67
2022/04/01 06:17:36;;;;;;;;;;;;;;;23.01;67.49;95129.66;575129;246;44662;-67
2022/04/01 06:20:07;;;;;;;;;;;;;;;23.00;66.98;95114.72;575368;245;67375;-67
2022/04/01 06:22:36;;;;;;;;;;;;;;;23.01;68.31;95106.33;578289;245;63999;-67
2022/04/01 06:25:10;;;;;;;;;;;;;;;23.02;67.91;95131.22;571491;245;67709;-67
2022/04/01 06:27:41;;;;;;;;;;;;;;;23.02;67.64;95123.19;578086;245;68761;-67
2022/04/01 06:30:10;;;;;;;;;;;;;;;23.03;67.51;95154.23;578181;245;65241;-67
2022/04/01 06:32:54;;;;;;;;;;;;;;;23.02;67.62;95134.67;578248;245;68859;-67
2022/04/01 06:35:31;;;;;;;;;;;;;;;23.02;67.43;95133.90;577826;243;46181;-67
2022/04/01 06:38:05;;;;;;;;;;;;;;;23.02;67.78;95140.03;578161;245;43790;-67
2022/04/01 06:40:49;;;;;;;;;;;;;;;23.03;66.91;95127.45;578122;245;66687;-66
2022/04/01 06:43:18;;;;;;;;;;;;;;;23.02;67.65;95129.31;577516;245;49730;-67
2022/04/01 06:45:54;;;;;;;;;;;;;;;23.04;67.72;95147.75;574394;245;46327;-72
2022/04/01 06:48:32;;;;;;;;;;;;;;;22.92;68.15;95128.94;578258;245;52649;-69
2022/04/01 06:51:18;;;;;;;;;;;;;;;23.03;67.17;95138.16;578727;245;42788;-68
2022/04/01 06:54:04;;;;;;;;;;;;;;;23.03;66.90;95124.77;578702;245;39069;-67
2022/04/01 06:56:50;;;;;;;;;;;;;;;23.03;67.91;95151.56;578582;245;40411;-69
2022/04/01 06:59:18;;;;;;;;;;;;;;;23.04;67.22;95153.89;578513;245;69882;-67
2022/04/01 07:01:46;;;;;;;;;;;;;;;23.04;67.59;95167.29;578593;245;65460;-58
2022/04/01 07:04:14;;;;;;;;;;;;;;;23.07;67.82;95165.84;578597;245;66436;-58
2022/04/01 07:06:42;;;;;;;;;;;;;;;23.05;67.60;95154.67;578502;245;68706;-58
2022/04/01 07:09:09;;;;;;;;;;;;;;;23.04;67.13;95161.93;578521;245;65512;-59
2022/04/01 07:11:37;;;;;;;;;;;;;;;23.05;66.71;95157.35;578525;245;68787;-60
2022/04/01 07:14:05;;;;;;;;;;;;;;;23.07;67.12;95159.71;578599;245;66390;-60
2022/04/01 07:16:33;;;;;;;;;;;;;;;23.04;66.44;95164.61;578653;245;65342;-60
2022/04/01 07:19:01;;;;;;;;;;;;;;;23.05;66.56;95186.82;578523;245;68197;-62
2022/04/01 07:21:29;;;;;;;;;;;;;;;23.03;64.53;95146.20;584008;242;66438;-62
2022/04/01 07:23:59;;;;;;;;;;;;;;;23.00;65.15;95168.30;586052;242;63185;-62
2022/04/01 07:26:26;;;;;;;;;;;;;;;22.99;65.83;95172.84;586113;242;69022;-62
2022/04/01 07:28:55;;;;;;;;;;;;;;;23.00;64.95;95189.72;586007;242;66130;-61
2022/04/01 07:34:11;;;;;;;;;;;;;;;23.00;65.03;95189.72;571414;248;69044;-67
2022/04/01 07:36:38;;;;;;;;;;;;;;;23.01;65.01;95183.24;581175;242;68466;-62
2022/04/01 07:39:06;;;;;;;;;;;;;;;22.99;64.01;95172.06;585997;242;62897;-68
2022/04/01 07:41:35;;;;;;;;;;;;;;;23.00;66.34;95184.37;586039;242;68854;-66
2022/04/01 07:44:03;;;;;;;;;;;;;;;22.99;65.34;95183.55;585913;242;68495;-67
2022/04/01 07:46:30;;;;;;;;;;;;;;;22.99;66.13;95178.20;585802;242;63238;-67
2022/04/01 07:48:58;;;;;;;;;;;;;;;22.99;65.40;95169.38;585844;242;68635;-66
2022/04/01 07:51:26;;;;;;;;;;;;;;;23.00;66.51;95179.01;585730;242;66736;-66
2022/04/01 07:53:53;;;;;;;;;;;;;;;22.99;66.37;95178.20;586003;242;65402;-66
2022/04/01 07:56:21;;;;;;;;;;;;;;;22.98;64.61;95139.14;586009;242;68833;-65
2022/04/01 07:58:49;;;;;;;;;;;;;;;22.98;64.50;95160.57;586002;242;68677;-66
2022/04/01 08:01:16;;;;;;;;;;;;;;;22.99;63.90;95169.38;585915;242;63236;-65
2022/04/01 08:03:45;;;;;;;;;;;;;;;22.99;66.08;95172.06;585492;242;66612;-67
2022/04/01 08:06:13;;;;;;;;;;;;;;;23.00;65.50;95195.08;585918;242;68309;-66
2022/04/01 08:08:40;;;;;;;;;;;;;;;22.99;65.64;95174.74;585792;242;65354;-67
2022/04/01 08:11:08;;;;;;;;;;;;;;;22.97;63.58;95188.48;585461;242;68623;-68
2022/04/01 08:13:35;;;;;;;;;;;;;;;22.97;65.04;95175.09;585951;242;69241;-60
2022/04/01 08:16:03;;;;;;;;;;;;;;;22.97;65.11;95185.00;585932;242;65406;-61
2022/04/01 08:18:31;;;;;;;;;;;;;;;22.96;63.92;95189.58;585881;242;68771;-61
2022/04/01 08:20:58;;;;;;;;;;;;;;;22.96;63.83;95156.66;585232;242;68683;-62
2022/04/01 08:23:26;;;;;;;;;;;;;;;22.96;64.05;95189.58;586092;242;65407;-61
2022/04/01 08:25:54;;;;;;;;;;;;;;;22.97;65.34;95190.35;586064;242;68916;-61
2022/04/01 08:28:21;;;;;;;;;;;;;;;22.98;66.02;95170.51;585977;242;66614;-60
2022/04/01 08:30:49;;;;;;;;;;;;;;;22.96;63.91;95183.44;586104;242;63182;-61
2022/04/01 08:33:20;;;;;;;;;;;;;;;22.96;65.31;95184.22;586068;242;68596;-61
2022/04/01 08:35:46;;;;;;;;;;;;;;;22.98;66.29;95192.72;585982;242;66494;-62
2022/04/01 08:38:13;;;;;;;;;;;;;;;22.97;65.30;95199.20;586024;242;63179;-62
2022/04/01 08:40:43;;;;;;;;;;;;;;;22.96;64.07;95186.89;585889;242;48683;-62
2022/04/01 08:43:12;;;;;;;;;;;;;;;22.97;64.58;95166.24;585927;242;68713;-62
2022/04/01 08:45:39;;;;;;;;;;;;;;;22.98;66.38;95154.44;586041;242;65189;-62
2022/04/01 08:48:13;;;;;;;;;;;;;;;22.97;64.68;95179.64;586007;242;67653;-66
2022/04/01 08:50:39;;;;;;;;;;;;;;;22.97;66.29;95171.60;585834;242;68923;-61
2022/04/01 08:53:07;;;;;;;;;;;;;;;22.96;64.35;95168.14;586005;242;65333;-66
2022/04/01 08:55:36;;;;;;;;;;;;;;;22.96;64.08;95178.08;586043;242;47435;-65
2022/04/01 08:58:04;;;;;;;;;;;;;;;22.97;63.97;95160.89;586016;242;68684;-65
2022/04/01 09:00:33;;;;;;;;;;;;;;;22.97;63.93;95168.92;585993;242;65325;-65
2022/04/01 09:03:02;;;;;;;;;;;;;;;22.97;64.21;95176.95;584933;242;68851;-65
2022/04/01 09:05:30;;;;;;;;;;;;;;;22.99;64.58;95177.42;585948;242;68865;-67
2022/04/01 09:08:05;;;;;;;;;;;;;;;22.99;64.87;95180.10;586041;242;65330;-67
2022/04/01 09:10:34;;;;;;;;;;;;;;;22.98;64.80;95186.58;585827;242;68873;-67
2022/04/01 09:13:03;;;;;;;;;;;;;;;22.98;65.43;95182.00;585378;242;68815;-66
2022/04/01 09:15:32;;;;;;;;;;;;;;;22.99;64.96;95180.10;585864;242;65365;-67
2022/04/01 09:17:59;;;;;;;;;;;;;;;22.99;64.41;95161.34;585588;242;68832;-68
2022/04/01 09:20:27;;;;;;;;;;;;;;;22.97;63.87;95168.92;585852;242;66099;-73
2022/04/01 09:22:56;;;;;;;;;;;;;;;22.98;64.60;95165.16;586001;242;65498;-67
2022/04/01 09:25:23;;;;;;;;;;;;;;;22.97;64.14;95158.20;586035;242;68866;-66
2022/04/01 09:27:52;;;;;;;;;;;;;;;22.99;65.41;95177.42;586001;242;69646;-66
2022/04/01 09:30:21;;;;;;;;;;;;;;;22.98;64.63;95165.93;586025;242;63044;-66
2022/04/01 09:32:53;;;;;;;;;;;;;;;22.99;65.34;95169.38;585824;242;66685;-66
2022/04/01 09:35:23;;;;;;;;;;;;;;;23.00;64.49;95168.30;586001;242;68809;-62
2022/04/01 09:37:53;;;;;;;;;;;;;;;22.99;65.31;95151.41;585571;242;65313;-62
2022/04/01 09:40:22;;;;;;;;;;;;;;;23.01;65.67;95153.77;585921;242;70822;-66
2022/04/01 09:42:50;;;;;;;;;;;;;;;23.00;64.81;95153.00;585963;242;66378;-64
2022/04/01 09:45:22;;;;;;;;;;;;;;;23.00;64.94;95149.54;586046;242;65475;-65
2022/04/01 09:48:05;;;;;;;;;;;;;;;23.00;63.81;95126.20;586065;242;66365;-66
2022/04/01 09:50:37;;;;;;;;;;;;;;;23.01;64.48;95117.05;586038;242;68651;-67
2022/04/01 09:53:09;;;;;;;;;;;;;;;23.04;61.11;95120.97;586092;242;65176;-67
2022/04/01 09:55:42;;;;;;;;;;;;;;;22.90;64.19;95094.44;586036;242;66948;-68
2022/04/01 09:58:10;;;;;;;;;;;;;;;23.04;64.50;95123.64;586029;242;68719;-69
2022/04/01 10:00:39;;;;;;;;;;;;;;;23.03;64.79;95122.87;585994;242;62781;-69
2022/04/01 10:03:10;;;;;;;;;;;;;;;23.03;64.38;95120.19;586004;242;68859;-69
2022/04/01 10:05:39;;;;;;;;;;;;;;;23.04;65.03;95111.03;585781;242;68608;-69
2022/04/01 10:08:08;;;;;;;;;;;;;;;23.03;65.32;95104.11;586089;242;65574;-69
2022/04/01 10:10:37;;;;;;;;;;;;;;;23.06;65.51;95100.00;586012;242;66692;-69
2022/04/01 10:13:06;;;;;;;;;;;;;;;23.06;65.11;95099.22;585983;242;68603;-69
2022/04/01 10:15:35;;;;;;;;;;;;;;;23.06;65.16;95094.64;585821;242;65347;-69
2022/04/01 10:18:03;;;;;;;;;;;;;;;23.07;66.35;95088.16;585055;242;68869;-69
2022/04/01 10:20:33;;;;;;;;;;;;;;;23.07;66.00;95077.44;585922;242;68766;-69
2022/04/01 10:23:03;;;;;;;;;;;;;;;23.08;65.58;95083.58;585929;242;63222;-68
2022/04/01 10:25:32;;;;;;;;;;;;;;;23.08;66.44;95065.62;585842;242;66735;-66
2022/04/01 10:28:04;;;;;;;;;;;;;;;23.08;66.76;95068.30;585391;242;68617;-68
2022/04/01 10:30:32;;;;;;;;;;;;;;;23.09;65.87;95077.90;586053;242;65404;-66
2022/04/01 10:33:00;;;;;;;;;;;;;;;23.10;65.88;95079.45;586058;242;69014;-67
2022/04/01 10:35:29;;;;;;;;;;;;;;;23.10;66.08;95066.05;586045;242;66235;-66
2022/04/01 10:37:58;;;;;;;;;;;;;;;23.12;66.25;95079.13;586051;242;63285;-67
2022/04/01 10:40:27;;;;;;;;;;;;;;;23.11;66.33;95070.31;586055;242;66726;-66
2022/04/01 10:42:56;;;;;;;;;;;;;;;23.12;66.55;95077.23;585938;242;66790;-66
2022/04/01 10:45:25;;;;;;;;;;;;;;;23.13;66.10;95075.33;585402;242;63276;-66
2022/04/01 10:53:38;;;;;;;;;;;;;;;23.14;66.57;95047.44;585692;242;47531;-66
2022/04/01 10:56:26;;;;;;;;;;;;;;;23.14;66.53;95042.08;586021;242;68925;-66
2022/04/01 10:58:55;;;;;;;;;;;;;;;23.14;66.22;95016.06;586030;242;68725;-68
2022/04/01 11:01:24;;;;;;;;;;;;;;;23.15;66.15;95048.99;585584;242;65548;-67
2022/04/01 11:03:55;;;;;;;;;;;;;;;23.15;66.63;95047.09;586011;242;66324;-69
2022/04/01 11:06:26;;;;;;;;;;;;;;;23.16;66.76;95043.31;585937;242;66607;-67
2022/04/01 11:08:53;;;;;;;;;;;;;;;23.15;65.77;95032.91;585878;242;63211;-66
2022/04/01 11:11:20;;;;;;;;;;;;;;;23.15;65.54;95052.45;585914;242;66930;-67
2022/04/01 11:14:08;;;;;;;;;;;;;;;23.16;65.77;95048.67;586045;242;66446;-66
2022/04/01 11:16:49;;;;;;;;;;;;;;;23.17;65.98;95054.81;586040;242;65591;-68
2022/04/01 11:19:18;;;;;;;;;;;;;;;23.17;66.17;95055.59;586021;242;67743;-67
2022/04/01 11:21:46;;;;;;;;;;;;;;;23.17;65.61;95052.13;586042;242;68708;-68
2022/04/01 11:24:25;;;;;;;;;;;;;;;23.18;66.25;95056.36;586085;242;65049;-68
2022/04/01 11:26:52;;;;;;;;;;;;;;;23.18;66.29;95067.08;586099;242;66139;-68
2022/04/01 11:29:24;;;;;;;;;;;;;;;23.18;66.29;95065.18;586002;242;66485;-66
2022/04/01 11:31:53;;;;;;;;;;;;;;;23.19;65.56;95056.05;585925;242;64123;-65
2022/04/01 11:34:20;;;;;;;;;;;;;;;23.20;66.06;95038.06;585454;242;68416;-71
2022/04/01 11:36:48;;;;;;;;;;;;;;;23.19;65.67;95050.69;586046;242;68491;-68
2022/04/01 11:39:16;;;;;;;;;;;;;;;23.20;66.26;95038.84;586032;242;65299;-69
2022/04/01 11:41:45;;;;;;;;;;;;;;;23.21;66.01;95051.11;585778;242;66334;-67
2022/04/01 11:44:14;;;;;;;;;;;;;;;23.21;65.84;95039.63;586074;242;68614;-67
2022/04/01 11:46:42;;;;;;;;;;;;;;;23.21;65.52;95039.63;586099;242;65380;-71
2022/04/01 11:49:09;;;;;;;;;;;;;;;23.24;65.26;95050.48;586168;242;68415;-70
2022/04/01 11:51:39;;;;;;;;;;;;;;;23.26;65.03;95050.12;586083;242;68393;-75
2022/04/01 11:54:10;;;;;;;;;;;;;;;23.25;65.55;95033.27;586104;242;65636;-72
2022/04/01 11:56:37;;;;;;;;;;;;;;;23.27;64.96;95043.64;586126;242;68883;-67
2022/04/01 11:59:07;;;;;;;;;;;;;;;23.29;65.91;95046.00;586023;242;69066;-68
2022/04/01 12:01:54;;;;;;;;;;;;;;;23.29;65.37;95029.92;586036;242;63324;-67
2022/04/01 12:04:06;;;;;;;;;;;;;;;23.29;65.96;95028.02;585246;242;68793;-69
2022/04/01 12:09:19;;;;;;;;;;;;;;;23.31;64.85;95022.34;585968;242;65451;-62
2022/04/01 12:11:47;;;;;;;;;;;;;;;23.33;63.61;95017.44;579598;242;68839;-62
2022/04/01 12:14:16;;;;;;;;;;;;;;;23.34;64.11;95008.27;586041;242;68704;-62
2022/04/01 12:16:45;;;;;;;;;;;;;;;23.34;64.23;95003.68;585899;242;65158;-62
2022/04/01 12:19:26;;;;;;;;;;;;;;;23.34;63.97;94992.96;586086;242;68588;-62
2022/04/01 12:21:53;;;;;;;;;;;;;;;23.36;64.43;94987.28;576291;242;68739;-61
2022/04/01 12:24:20;;;;;;;;;;;;;;;23.36;64.91;95006.81;575341;246;63399;-62
2022/04/01 12:26:48;;;;;;;;;;;;;;;23.38;64.86;94995.75;575470;246;67080;-63
2022/04/01 12:29:22;;;;;;;;;;;;;;;23.38;65.07;94996.55;575424;246;68745;-62
2022/04/01 12:31:52;;;;;;;;;;;;;;;23.38;64.99;94995.75;575512;246;65400;-64
2022/04/01 12:34:20;;;;;;;;;;;;;;;23.40;65.62;94993.52;575461;244;74287;-63
2022/04/01 12:36:52;;;;;;;;;;;;;;;23.40;65.38;94993.52;575463;246;68790;-70
2022/04/01 12:39:20;;;;;;;;;;;;;;;23.40;64.63;94986.25;575396;245;63457;-64
2022/04/01 12:41:55;;;;;;;;;;;;;;;23.42;64.13;94991.30;575481;246;69026;-64
2022/04/01 12:44:24;;;;;;;;;;;;;;;23.41;64.78;94998.56;575490;246;66654;-68
2022/04/01 12:46:52;;;;;;;;;;;;;;;23.43;64.87;95000.89;575535;246;65518;-68
2022/04/01 12:49:21;;;;;;;;;;;;;;;23.44;64.89;94997.88;575385;246;68943;-68
2022/04/01 12:51:50;;;;;;;;;;;;;;;23.44;63.58;94991.75;575469;246;66622;-68
2022/04/01 12:54:27;;;;;;;;;;;;;;;23.45;65.28;95002.12;575443;246;65218;-68
2022/04/01 12:56:55;;;;;;;;;;;;;;;23.44;64.93;94997.88;574880;246;68759;-66
2022/04/01 12:59:24;;;;;;;;;;;;;;;23.46;64.62;94989.48;575431;246;68582;-61
2022/04/01 13:02:02;;;;;;;;;;;;;;;23.46;64.19;94989.48;575434;246;63485;-60
2022/04/01 13:04:29;;;;;;;;;;;;;;;23.47;64.46;94983.81;575480;246;68971;-58
2022/04/01 13:07:14;;;;;;;;;;;;;;;23.47;64.43;94983.03;575508;246;68412;-58
2022/04/01 13:09:51;;;;;;;;;;;;;;;23.48;64.84;94979.22;575341;246;65428;-68
2022/04/01 13:12:20;;;;;;;;;;;;;;;23.49;64.37;94970.08;575457;246;66689;-66
2022/04/01 13:14:58;;;;;;;;;;;;;;;23.49;64.59;94970.08;575479;246;69027;-65
2022/04/01 13:17:26;;;;;;;;;;;;;;;23.50;64.94;94966.27;575445;246;63043;-66